createdAt,value
2018-08-19T00:00:39.168Z,20.00
2018-08-19T00:03:10.886Z,19.90
2018-08-19T00:05:42.842Z,19.80
2018-08-19T00:08:14.758Z,19.80
2018-08-19T00:11:02.496Z,19.80
2018-08-19T00:13:34.812Z,19.70
2018-08-19T00:16:07.045Z,19.70
2018-08-19T00:18:39.073Z,19.70
2018-08-19T00:21:13.877Z,19.80
2018-08-19T00:23:49.737Z,19.80
2018-08-19T00:26:21.369Z,19.80
2018-08-19T00:28:53.225Z,19.70
2018-08-19T00:31:25.115Z,19.60
2018-08-19T00:33:56.998Z,19.70
2018-08-19T00:36:35.696Z,19.70
2018-08-19T00:39:09.875Z,19.70
2018-08-19T00:41:41.637Z,19.70
2018-08-19T00:44:13.417Z,19.60
2018-08-19T00:46:45.247Z,19.70
2018-08-19T00:49:17.256Z,19.60
2018-08-19T00:51:53.974Z,19.60
2018-08-19T00:54:25.896Z,19.60
2018-08-19T00:56:58.838Z,19.50
2018-08-19T00:59:31.722Z,19.40
2018-08-19T01:02:03.795Z,19.30
2018-08-19T01:04:35.557Z,19.30
2018-08-19T01:07:07.313Z,19.30
2018-08-19T01:09:39.208Z,19.20
2018-08-19T01:12:11.125Z,19.10
2018-08-19T01:14:43.140Z,19.00
2018-08-19T01:17:14.910Z,18.90
2018-08-19T01:19:47.270Z,18.90
2018-08-19T01:22:19.107Z,18.90
2018-08-19T01:24:50.941Z,18.90
2018-08-19T01:27:24.145Z,18.80
2018-08-19T01:29:56.149Z,18.80
2018-08-19T01:32:27.971Z,18.80
2018-08-19T01:34:59.930Z,18.90
2018-08-19T01:37:31.634Z,18.90
2018-08-19T01:40:03.465Z,19.00
2018-08-19T01:42:36.017Z,19.00
2018-08-19T01:45:09.343Z,18.90
2018-08-19T01:47:41.177Z,18.80
2018-08-19T01:50:16.841Z,18.80
2018-08-19T01:52:51.551Z,18.70
2018-08-19T01:55:23.465Z,18.70
2018-08-19T01:57:56.470Z,18.70
2018-08-19T02:00:28.360Z,18.70
2018-08-19T02:03:05.779Z,18.80
2018-08-19T02:05:37.542Z,18.80
2018-08-19T02:08:09.433Z,18.80
2018-08-19T02:10:41.193Z,18.80
2018-08-19T02:13:12.865Z,18.80
2018-08-19T02:15:44.753Z,18.70
2018-08-19T02:18:16.527Z,18.50
2018-08-19T02:20:48.353Z,18.40
2018-08-19T02:23:20.142Z,18.40
2018-08-19T02:25:52.152Z,18.40
2018-08-19T02:28:23.989Z,18.40
2018-08-19T02:31:00.644Z,18.40
2018-08-19T02:33:35.808Z,18.40
2018-08-19T02:36:08.693Z,18.40
2018-08-19T02:38:40.476Z,18.40
2018-08-19T02:41:12.280Z,18.40
2018-08-19T02:43:49.033Z,18.40
2018-08-19T02:46:21.026Z,18.40
2018-08-19T02:48:53.456Z,18.40
2018-08-19T02:51:25.286Z,18.30
2018-08-19T02:53:57.221Z,18.30
2018-08-19T02:56:28.980Z,18.20
2018-08-19T02:59:00.614Z,18.10
2018-08-19T03:01:32.300Z,18.10
2018-08-19T03:04:04.103Z,18.10
2018-08-19T03:06:37.032Z,18.10
2018-08-19T03:09:12.096Z,18.10
2018-08-19T03:11:43.759Z,18.10
2018-08-19T03:14:15.539Z,18.00
2018-08-19T03:16:47.266Z,18.00
2018-08-19T03:19:19.110Z,17.90
2018-08-19T03:21:53.241Z,18.00
2018-08-19T03:24:24.889Z,17.90
2018-08-19T03:26:57.272Z,18.00
2018-08-19T03:29:29.036Z,18.00
2018-08-19T03:32:02.399Z,17.90
2018-08-19T03:34:34.222Z,18.00
2018-08-19T03:37:06.201Z,18.00
2018-08-19T03:39:38.102Z,18.00
2018-08-19T03:42:09.863Z,18.00
2018-08-19T03:44:41.639Z,17.90
2018-08-19T03:47:18.543Z,17.80
2018-08-19T03:49:51.838Z,17.60
2018-08-19T03:52:23.545Z,17.50
2018-08-19T03:54:55.457Z,17.40
2018-08-19T03:57:27.300Z,17.40
2018-08-19T03:59:59.026Z,17.40
2018-08-19T04:02:30.693Z,17.40
2018-08-19T04:05:02.472Z,17.30
2018-08-19T04:07:34.252Z,17.30
2018-08-19T04:10:05.879Z,17.30
2018-08-19T04:12:37.561Z,17.40
2018-08-19T04:15:11.194Z,17.50
2018-08-19T04:17:43.011Z,17.60
2018-08-19T04:20:14.743Z,17.60
2018-08-19T04:22:46.424Z,17.50
2018-08-19T04:25:22.502Z,17.50
2018-08-19T04:27:54.214Z,17.50
2018-08-19T04:30:26.130Z,17.50
2018-08-19T04:32:57.833Z,17.50
2018-08-19T04:35:29.845Z,17.60
2018-08-19T04:38:01.513Z,17.60
2018-08-19T04:40:33.147Z,17.60
2018-08-19T04:43:05.020Z,17.70
2018-08-19T04:45:36.633Z,17.60
2018-08-19T04:48:08.415Z,17.60
2018-08-19T04:50:40.148Z,17.70
2018-08-19T04:53:12.037Z,17.80
2018-08-19T04:55:43.835Z,17.80
2018-08-19T04:58:15.681Z,17.80
2018-08-19T05:00:47.593Z,18.00
2018-08-19T05:03:19.377Z,17.90
2018-08-19T05:05:51.024Z,18.00
2018-08-19T05:08:22.995Z,18.00
2018-08-19T05:10:54.593Z,18.00
2018-08-19T05:13:26.398Z,18.10
2018-08-19T05:15:58.460Z,18.10
2018-08-19T05:18:30.409Z,18.20
2018-08-19T05:21:07.085Z,18.20
2018-08-19T05:23:38.950Z,18.30
2018-08-19T05:26:12.752Z,18.40
2018-08-19T05:29:15.653Z,18.50
2018-08-19T05:31:52.573Z,18.50
2018-08-19T05:34:29.005Z,18.60
2018-08-19T05:37:00.959Z,18.70
2018-08-19T05:39:32.841Z,18.70
2018-08-19T05:42:13.723Z,18.70
2018-08-19T05:44:45.524Z,18.80
2018-08-19T05:47:19.362Z,18.90
2018-08-19T05:49:51.393Z,18.90
2018-08-19T05:52:24.063Z,19.00
2018-08-19T05:54:58.851Z,19.10
2018-08-19T05:57:32.033Z,19.20
2018-08-19T06:00:08.765Z,19.30
2018-08-19T06:02:43.685Z,19.30
2018-08-19T06:05:15.589Z,19.30
2018-08-19T06:07:48.188Z,19.30
2018-08-19T06:10:19.948Z,19.40
2018-08-19T06:12:51.622Z,19.40
2018-08-19T06:15:23.551Z,19.50
2018-08-19T06:17:55.513Z,19.60
2018-08-19T06:20:30.036Z,19.70
2018-08-19T06:23:01.970Z,19.80
2018-08-19T06:25:33.969Z,19.90
2018-08-19T06:28:05.846Z,20.10
2018-08-19T06:30:37.742Z,20.20
2018-08-19T06:33:09.477Z,20.30
2018-08-19T06:35:41.514Z,20.40
2018-08-19T06:38:13.310Z,20.50
2018-08-19T06:40:45.057Z,20.60
2018-08-19T06:43:17.079Z,20.70
2018-08-19T06:45:48.879Z,20.80
2018-08-19T06:48:20.537Z,20.90
2018-08-19T06:50:52.383Z,21.00
2018-08-19T06:53:29.975Z,21.10
2018-08-19T06:56:01.891Z,21.20
2018-08-19T06:58:33.608Z,21.30
2018-08-19T07:01:05.661Z,21.40
2018-08-19T07:03:44.144Z,21.50
2018-08-19T07:06:38.131Z,21.60
2018-08-19T07:09:29.871Z,21.70
2018-08-19T07:12:29.660Z,21.70
2018-08-19T07:15:11.482Z,21.90
2018-08-19T07:18:07.062Z,22.00
2018-08-19T07:20:43.394Z,22.10
2018-08-19T07:23:16.563Z,22.20
2018-08-19T07:25:50.603Z,22.30
2018-08-19T07:28:43.395Z,22.40
2018-08-19T07:31:24.693Z,22.50
2018-08-19T07:34:01.498Z,22.60
2018-08-19T07:36:51.409Z,22.80
2018-08-19T07:39:28.124Z,23.00
2018-08-19T07:42:02.517Z,23.10
2018-08-19T07:44:37.049Z,23.30
2018-08-19T07:47:11.014Z,23.50
2018-08-19T07:49:45.588Z,23.60
2018-08-19T07:52:19.895Z,23.70
2018-08-19T07:54:54.626Z,23.80
2018-08-19T07:57:33.074Z,24.00
2018-08-19T08:00:07.184Z,24.10
2018-08-19T08:02:43.296Z,24.20
2018-08-19T08:05:17.045Z,24.20
2018-08-19T08:07:51.618Z,24.40
2018-08-19T08:10:25.591Z,24.60
2018-08-19T08:13:14.319Z,24.70
2018-08-19T08:15:57.140Z,24.70
2018-08-19T08:18:31.608Z,24.70
2018-08-19T08:21:10.817Z,24.80
2018-08-19T08:23:45.752Z,25.00
2018-08-19T08:26:19.227Z,25.10
2018-08-19T08:28:57.392Z,25.20
2018-08-19T08:31:29.282Z,25.40
2018-08-19T08:34:00.858Z,25.50
2018-08-19T08:36:32.473Z,25.70
2018-08-19T08:39:04.695Z,25.80
2018-08-19T08:41:36.493Z,25.90
2018-08-19T08:44:08.403Z,25.90
2018-08-19T08:46:40.160Z,25.90
2018-08-19T08:49:11.901Z,26.00
2018-08-19T08:51:44.893Z,26.10
2018-08-19T08:54:16.722Z,26.30
2018-08-19T08:56:48.832Z,26.30
2018-08-19T08:59:20.433Z,26.50
2018-08-19T09:01:52.105Z,26.70
2018-08-19T09:04:23.988Z,26.70
2018-08-19T09:06:55.935Z,26.80
2018-08-19T09:09:27.880Z,26.90
2018-08-19T09:11:59.680Z,27.10
2018-08-19T09:14:32.403Z,27.20
2018-08-19T09:17:05.342Z,27.30
2018-08-19T09:19:37.855Z,27.50
2018-08-19T09:22:11.345Z,27.60
2018-08-19T09:24:44.102Z,27.70
2018-08-19T09:27:16.797Z,27.70
2018-08-19T09:29:49.602Z,27.80
2018-08-19T09:32:22.438Z,27.90
2018-08-19T09:34:55.156Z,28.00
2018-08-19T09:37:27.613Z,28.10
2018-08-19T09:40:00.382Z,28.20
2018-08-19T09:42:33.303Z,28.30
2018-08-19T09:45:06.544Z,28.50
2018-08-19T09:47:38.767Z,28.70
2018-08-19T09:50:11.669Z,28.80
2018-08-19T09:52:44.633Z,28.80
2018-08-19T09:55:17.470Z,28.80
2018-08-19T09:57:55.854Z,28.90
2018-08-19T10:00:32.194Z,29.00
2018-08-19T10:03:05.138Z,29.00
2018-08-19T10:05:38.186Z,29.20
2018-08-19T10:08:10.977Z,29.30
2018-08-19T10:10:42.929Z,29.30
2018-08-19T10:13:16.426Z,29.40
2018-08-19T10:15:48.152Z,29.40
2018-08-19T10:18:20.090Z,29.50
2018-08-19T10:20:51.948Z,29.50
2018-08-19T10:23:26.258Z,29.60
2018-08-19T10:25:57.978Z,29.60
2018-08-19T10:28:29.714Z,29.60
2018-08-19T10:31:02.154Z,29.70
2018-08-19T10:33:33.905Z,29.80
2018-08-19T10:36:05.704Z,30.00
2018-08-19T10:38:37.484Z,30.10
2018-08-19T10:41:09.224Z,30.10
2018-08-19T10:43:41.065Z,30.30
2018-08-19T10:46:13.031Z,30.30
2018-08-19T10:48:44.597Z,30.30
2018-08-19T10:51:16.250Z,30.30
2018-08-19T10:53:47.929Z,30.40
2018-08-19T10:56:19.672Z,30.50
2018-08-19T10:58:56.465Z,30.50
2018-08-19T11:01:28.509Z,30.60
2018-08-19T11:04:00.334Z,30.70
2018-08-19T11:06:32.318Z,30.80
2018-08-19T11:09:05.236Z,30.80
2018-08-19T11:11:36.891Z,30.60
2018-08-19T11:14:11.325Z,30.70
2018-08-19T11:16:43.075Z,30.90
2018-08-19T11:19:14.825Z,30.90
2018-08-19T11:21:46.653Z,31.00
2018-08-19T11:24:22.678Z,31.10
2018-08-19T11:26:59.329Z,31.10
2018-08-19T11:29:34.268Z,31.30
2018-08-19T11:32:06.202Z,31.30
2018-08-19T11:34:38.044Z,31.10
2018-08-19T11:37:09.817Z,31.00
2018-08-19T11:39:44.546Z,31.20
2018-08-19T11:42:16.364Z,31.30
2018-08-19T11:44:48.123Z,31.30
2018-08-19T11:47:19.916Z,31.30
2018-08-19T11:49:51.707Z,31.20
2018-08-19T11:52:23.351Z,31.20
2018-08-19T11:54:55.145Z,31.30
2018-08-19T11:57:26.969Z,31.50
2018-08-19T11:59:58.741Z,31.50
2018-08-19T12:02:30.563Z,31.50
2018-08-19T12:05:02.417Z,31.60
2018-08-19T12:07:34.113Z,31.60
2018-08-19T12:10:06.062Z,31.70
2018-08-19T12:12:49.110Z,31.70
2018-08-19T12:15:20.865Z,31.70
2018-08-19T12:17:52.613Z,31.70
2018-08-19T12:20:28.397Z,31.80
2018-08-19T12:23:00.122Z,31.90
2018-08-19T12:25:31.861Z,31.80
2018-08-19T12:28:03.542Z,31.90
2018-08-19T12:30:35.409Z,31.90
2018-08-19T12:33:23.098Z,32.10
2018-08-19T12:35:57.463Z,32.10
2018-08-19T12:38:29.401Z,32.20
2018-08-19T12:41:03.930Z,32.20
2018-08-19T12:43:36.422Z,32.10
2018-08-19T12:46:08.571Z,31.90
2018-08-19T12:48:40.153Z,31.90
2018-08-19T12:51:12.085Z,31.90
2018-08-19T12:53:43.891Z,31.90
2018-08-19T12:56:16.175Z,32.00
2018-08-19T12:58:47.799Z,32.00
2018-08-19T13:01:19.532Z,31.90
2018-08-19T13:03:51.309Z,31.90
2018-08-19T13:06:23.062Z,31.90
2018-08-19T13:08:54.724Z,31.90
2018-08-19T13:11:26.584Z,32.00
2018-08-19T13:13:58.313Z,32.10
2018-08-19T13:16:30.006Z,32.10
2018-08-19T13:19:01.684Z,32.10
2018-08-19T13:21:33.494Z,32.20
2018-08-19T13:24:05.412Z,32.10
2018-08-19T13:26:37.029Z,31.90
2018-08-19T13:29:08.961Z,31.70
2018-08-19T13:31:40.616Z,31.40
2018-08-19T13:34:12.306Z,31.10
2018-08-19T13:36:44.173Z,31.00
2018-08-19T13:39:16.033Z,31.00
2018-08-19T13:41:47.923Z,30.90
2018-08-19T13:44:19.661Z,30.90
2018-08-19T13:46:51.543Z,30.70
2018-08-19T13:49:28.269Z,30.60
2018-08-19T13:52:03.873Z,30.70
2018-08-19T13:54:36.101Z,30.70
2018-08-19T13:57:07.908Z,30.90
2018-08-19T13:59:39.529Z,31.20
2018-08-19T14:02:11.353Z,31.40
2018-08-19T14:04:43.174Z,31.60
2018-08-19T14:07:14.906Z,31.80
2018-08-19T14:09:46.743Z,32.00
2018-08-19T14:12:18.623Z,32.10
2018-08-19T14:14:50.285Z,32.10
2018-08-19T14:17:22.220Z,32.20
2018-08-19T14:19:53.994Z,32.30
2018-08-19T14:22:25.652Z,32.30
2018-08-19T14:24:57.402Z,32.10
2018-08-19T14:27:29.177Z,32.10
2018-08-19T14:30:00.980Z,32.10
2018-08-19T14:32:40.339Z,32.00
2018-08-19T14:35:12.136Z,32.10
2018-08-19T14:37:44.246Z,32.10
2018-08-19T14:40:18.678Z,32.10
2018-08-19T14:42:50.365Z,32.10
2018-08-19T14:45:22.168Z,32.10
2018-08-19T14:47:53.911Z,32.10
2018-08-19T14:50:25.688Z,31.90
2018-08-19T14:52:57.236Z,31.90
2018-08-19T14:55:28.870Z,31.90
2018-08-19T14:58:00.865Z,32.00
2018-08-19T15:00:32.633Z,32.00
2018-08-19T15:03:04.457Z,31.90
2018-08-19T15:05:36.292Z,31.90
2018-08-19T15:08:13.018Z,31.70
2018-08-19T15:10:46.416Z,31.60
2018-08-19T15:13:18.053Z,31.50
2018-08-19T15:15:49.697Z,31.50
2018-08-19T15:18:21.360Z,31.40
2018-08-19T15:20:53.139Z,31.30
2018-08-19T15:23:24.889Z,31.20
2018-08-19T15:25:56.332Z,31.10
2018-08-19T15:28:27.988Z,31.00
2018-08-19T15:30:59.821Z,30.90
2018-08-19T15:33:31.630Z,30.80
2018-08-19T15:36:03.268Z,30.70
2018-08-19T15:38:35.029Z,30.70
2018-08-19T15:41:06.827Z,30.70
2018-08-19T15:43:38.666Z,30.70
2018-08-19T15:46:10.433Z,30.70
2018-08-19T15:48:42.157Z,30.70
2018-08-19T15:51:13.909Z,30.60
2018-08-19T15:53:45.805Z,30.60
2018-08-19T15:56:17.578Z,30.60
2018-08-19T15:58:49.586Z,30.60
2018-08-19T16:01:35.457Z,30.50
2018-08-19T16:04:13.946Z,30.60
2018-08-19T16:06:47.225Z,30.50
2018-08-19T16:09:22.576Z,30.50
2018-08-19T16:11:54.569Z,30.40
2018-08-19T16:14:30.550Z,30.30
2018-08-19T16:17:03.547Z,30.30
2018-08-19T16:19:35.308Z,30.20
2018-08-19T16:22:07.260Z,30.20
2018-08-19T16:24:39.122Z,30.10
2018-08-19T16:27:10.918Z,30.10
2018-08-19T16:29:42.768Z,30.10
2018-08-19T16:32:14.707Z,30.10
2018-08-19T16:34:46.370Z,30.10
2018-08-19T16:37:18.167Z,30.00
2018-08-19T16:39:50.082Z,30.00
2018-08-19T16:42:21.874Z,29.90
2018-08-19T16:44:53.614Z,29.90
2018-08-19T16:47:25.387Z,29.80
2018-08-19T16:49:56.933Z,29.80
2018-08-19T16:52:28.878Z,29.70
2018-08-19T16:55:00.732Z,29.70
2018-08-19T16:57:32.516Z,29.60
2018-08-19T17:00:04.442Z,29.50
2018-08-19T17:02:37.015Z,29.50
2018-08-19T17:05:29.085Z,29.40
2018-08-19T17:08:00.934Z,29.30
2018-08-19T17:10:32.612Z,29.30
2018-08-19T17:13:04.365Z,29.20
2018-08-19T17:15:36.203Z,29.10
2018-08-19T17:18:08.232Z,29.10
2018-08-19T17:20:40.052Z,29.00
2018-08-19T17:23:11.877Z,29.00
2018-08-19T17:25:43.482Z,28.90
2018-08-19T17:28:20.204Z,28.90
2018-08-19T17:30:53.408Z,28.80
2018-08-19T17:33:28.610Z,28.70
2018-08-19T17:36:00.432Z,28.70
2018-08-19T17:38:34.337Z,28.60
2018-08-19T17:41:06.606Z,28.60
2018-08-19T17:43:42.561Z,28.50
2018-08-19T17:46:15.580Z,28.50
2018-08-19T17:48:47.333Z,28.40
2018-08-19T17:51:36.771Z,28.40
2018-08-19T17:54:42.071Z,28.30
2018-08-19T17:57:13.790Z,28.30
2018-08-19T17:59:45.800Z,28.20
2018-08-19T18:02:17.687Z,28.10
2018-08-19T18:04:49.293Z,28.10
2018-08-19T18:07:27.369Z,28.00
2018-08-19T18:10:00.311Z,27.90
2018-08-19T18:12:32.045Z,27.90
2018-08-19T18:15:04.090Z,27.80
2018-08-19T18:17:35.848Z,27.70
2018-08-19T18:20:36.375Z,27.70
2018-08-19T18:23:15.816Z,27.60
2018-08-19T18:25:50.982Z,27.50
2018-08-19T18:28:26.716Z,27.40
2018-08-19T18:31:04.295Z,27.40
2018-08-19T18:33:38.309Z,27.20
2018-08-19T18:36:10.022Z,27.10
2018-08-19T18:38:41.643Z,27.00
2018-08-19T18:41:25.616Z,26.90
2018-08-19T18:43:58.458Z,26.70
2018-08-19T18:46:30.533Z,26.60
2018-08-19T18:49:20.329Z,26.50
2018-08-19T18:51:54.240Z,26.40
2018-08-19T18:54:32.959Z,26.30
2018-08-19T18:57:08.826Z,26.20
2018-08-19T18:59:44.584Z,26.10
2018-08-19T19:02:16.451Z,26.00
2018-08-19T19:04:47.981Z,25.90
2018-08-19T19:07:19.629Z,25.90
2018-08-19T19:09:51.637Z,25.80
2018-08-19T19:12:24.216Z,25.70
2018-08-19T19:14:55.828Z,25.60
2018-08-19T19:17:27.616Z,25.50
2018-08-19T19:19:59.513Z,25.40
2018-08-19T19:22:31.229Z,25.40
2018-08-19T19:25:02.977Z,25.30
2018-08-19T19:27:34.758Z,25.20
2018-08-19T19:30:06.592Z,25.20
2018-08-19T19:32:38.278Z,25.10
2018-08-19T19:35:18.839Z,25.00
2018-08-19T19:37:50.331Z,24.90
2018-08-19T19:40:23.381Z,24.90
2018-08-19T19:42:55.212Z,24.80
2018-08-19T19:45:28.226Z,24.70
2018-08-19T19:48:00.402Z,24.60
2018-08-19T19:50:32.814Z,24.60
2018-08-19T19:53:05.160Z,24.50
2018-08-19T19:56:06.553Z,24.50
2018-08-19T19:58:41.854Z,24.40
2018-08-19T20:01:14.005Z,24.30
2018-08-19T20:03:55.089Z,24.20
2018-08-19T20:06:27.433Z,24.10
2018-08-19T20:09:01.267Z,24.00
2018-08-19T20:11:32.902Z,24.00
2018-08-19T20:14:04.491Z,23.90
2018-08-19T20:16:36.237Z,23.90
2018-08-19T20:19:08.311Z,23.80
2018-08-19T20:21:40.266Z,23.80
2018-08-19T20:24:11.853Z,23.70
2018-08-19T20:26:43.681Z,23.60
2018-08-19T20:29:15.417Z,23.50
2018-08-19T20:31:47.352Z,23.40
2018-08-19T20:34:19.029Z,23.30
2018-08-19T20:36:50.803Z,23.30
2018-08-19T20:39:22.626Z,23.20
2018-08-19T20:41:54.306Z,23.20
2018-08-19T20:44:25.970Z,23.10
2018-08-19T20:46:58.727Z,23.00
2018-08-19T20:49:30.496Z,23.00
2018-08-19T20:52:02.500Z,22.80
2018-08-19T20:54:34.121Z,22.80
2018-08-19T20:57:05.993Z,22.70
2018-08-19T20:59:38.805Z,22.60
2018-08-19T21:02:10.658Z,22.60
2018-08-19T21:04:42.356Z,22.50
2018-08-19T21:07:14.179Z,22.40
2018-08-19T21:09:45.893Z,22.40
2018-08-19T21:12:17.753Z,22.20
2018-08-19T21:14:49.597Z,22.20
2018-08-19T21:17:21.491Z,22.20
2018-08-19T21:19:53.231Z,22.10
2018-08-19T21:22:26.020Z,22.00
2018-08-19T21:24:57.789Z,22.00
2018-08-19T21:27:29.632Z,22.00
2018-08-19T21:30:01.400Z,22.00
2018-08-19T21:32:33.261Z,21.90
2018-08-19T21:35:05.323Z,21.90
2018-08-19T21:37:37.103Z,21.90
2018-08-19T21:40:08.869Z,21.90
2018-08-19T21:42:51.504Z,22.00
2018-08-19T21:45:23.224Z,22.00
2018-08-19T21:47:54.774Z,22.00
2018-08-19T21:50:27.082Z,22.00
2018-08-19T21:53:03.289Z,21.90
2018-08-19T21:55:36.628Z,21.90
2018-08-19T21:58:08.575Z,21.90
2018-08-19T22:00:45.902Z,21.90
2018-08-19T22:03:23.176Z,21.90
2018-08-19T22:05:55.052Z,21.90
2018-08-19T22:08:26.779Z,21.90
2018-08-19T22:10:58.637Z,21.90
2018-08-19T22:13:30.468Z,21.80
2018-08-19T22:16:02.281Z,21.80
2018-08-19T22:18:34.037Z,21.70
2018-08-19T22:21:17.241Z,21.70
2018-08-19T22:23:50.378Z,21.60
2018-08-19T22:26:22.549Z,21.50
2018-08-19T22:29:11.357Z,21.40
2018-08-19T22:31:43.312Z,21.30
2018-08-19T22:34:14.974Z,21.20
2018-08-19T22:36:46.846Z,21.10
2018-08-19T22:39:20.488Z,21.00
2018-08-19T22:41:53.010Z,20.90
2018-08-19T22:44:24.668Z,20.80
2018-08-19T22:46:56.344Z,20.70
2018-08-19T22:49:30.120Z,20.70
2018-08-19T22:52:21.650Z,20.60
2018-08-19T22:54:57.459Z,20.50
2018-08-19T22:57:29.399Z,20.50
2018-08-19T23:00:01.546Z,20.40
2018-08-19T23:02:33.622Z,20.40
2018-08-19T23:05:05.668Z,20.30
2018-08-19T23:07:37.422Z,20.30
2018-08-19T23:10:09.183Z,20.20
2018-08-19T23:12:42.454Z,20.10
2018-08-19T23:15:30.362Z,20.00
2018-08-19T23:18:02.169Z,19.90
2018-08-19T23:20:33.958Z,19.80
2018-08-19T23:23:05.782Z,19.80
2018-08-19T23:25:37.648Z,19.70
2018-08-19T23:28:09.420Z,19.70
2018-08-19T23:30:41.108Z,19.70
2018-08-19T23:33:12.824Z,19.70
2018-08-19T23:35:44.502Z,19.70
2018-08-19T23:38:16.633Z,19.60
2018-08-19T23:40:48.521Z,19.70
2018-08-19T23:43:20.427Z,19.60
2018-08-19T23:45:52.047Z,19.60
2018-08-19T23:48:23.913Z,19.50
2018-08-19T23:50:55.657Z,19.60
2018-08-19T23:53:27.417Z,19.60
2018-08-19T23:55:59.206Z,19.50
2018-08-19T23:58:31.055Z,19.50
